HOURLY OBS INDEX

026

Lower Southeast

CAPE JAFFA (THE LIMESTONE)

Site: 026095
Alt: 17.0m
22km N of ROBE


  Time     Wind        Temp  DP   Baro     Rain since   Rain past  Vis(m), Cloud(base in m), Weather
  local        km/h                         9am  last   hr   10m    
Mon 10:30    E  9/ 15  11.4  8.4  1030.8    0.2   0.0   0.2   0.0   ----- 
Mon 11:00  ESE  9/ 13  11.4  7.3  1030.8    0.2   0.0   0.0   0.0   ----- 
Mon 11:30   SE  6/  7  11.7  7.0  1030.5    0.2   0.0   0.0   0.0   ----- 
Mon 12:00  SSE  6/  7  11.9  6.4  1030.2    0.2   0.0   0.0   0.0   ----- 
Mon 12:30   SE  7/ 13  12.0  6.5  1029.9    0.2   0.0   0.0   0.0   ----- 
Mon 13:00  SSE  6/ 13  11.8  6.1  1029.7    0.2   0.0   0.0   0.0   ----- 
Mon 13:30   SE  2/  6  12.0  6.3  1029.6    0.2   0.0   0.0   0.0   ----- 
Mon 14:00    S  6/  7  12.0  6.1  1029.3    0.2   0.0   0.0   0.0   ----- 
Mon 14:30    S  7/ 11  11.7  6.6  1029.0    0.2   0.0   0.0   0.0   ----- 
Mon 15:00    S  7/  9  11.7  6.6  1029.0    0.2   0.0   0.0   0.0   ----- 
Mon 15:30  SSE  9/ 13  11.5  5.8  1029.0    0.2   0.0   0.0   0.0   ----- 

COONAWARRA

Site: 026091
Alt: 57.0m
38km SSE of NARACOORTE


  Time     Wind        Temp  DP   Baro     Rain since   Rain past  Vis(m), Cloud(base in m), Weather
  local        km/h                         9am  last   hr   10m    
Mon 10:30  SSE 13/ 19  10.2  6.5  1030.2    0.0   0.0   0.0   0.0   ----- 
Mon 11:00    S 17/ 24  10.8  6.3  1030.2    0.0   0.0   0.0   0.0   ----- 
Mon 11:30    S 17/ 22  10.8  5.8  1030.1    0.0   0.0   0.0   0.0   ----- 
Mon 12:00  SSE 17/ 24  10.9  5.2  1029.9    0.0   0.0   0.0   0.0   ----- 
Mon 12:30  SSE 15/ 22  11.1  4.9  1029.4    0.0   0.0   0.0   0.0   ----- 
Mon 13:00    S 13/ 22  11.3  4.4  1029.3    0.0   0.0   0.0   0.0   ----- 
Mon 13:30  SSE 15/ 20  10.7  4.4  1029.2    0.0   0.0   0.0   0.0   ----- 
Mon 14:00    S 17/ 22  11.3  4.1  1029.0    0.0   0.0   0.0   0.0   ----- 
Mon 14:30  SSE 11/ 15  11.0  5.0  1029.2    0.0   0.0   0.0   0.0   ----- 
Mon 15:00    S 15/ 20  10.9  4.1  1029.0    0.0   0.0   0.0   0.0   ----- 
Mon 15:30  SSE 13/ 19  10.7  5.2  1029.1    0.0   0.0   0.0   0.0   ----- 

MOUNT GAMBIER AERO

Site: 026021
Alt: 63.0m
9km N of MOUNT GAMBIER


  Time     Wind        Temp  DP   Baro     Rain since   Rain past  Vis(m), Cloud(base in m), Weather
  local        km/h                         9am  last   hr   10m    
Mon 10:30  SSE 11/ 15  10.2  7.3  1030.4    0.0   0.0   0.0   0.0   10000|OC 990 
Mon 11:00  SSW  7/ 11  10.0  7.3  1030.3    0.0   0.0   0.0   0.0   10000|OC 990 
Mon 11:30   SW  2/  7  10.4  7.3  1030.2    0.0   0.0   0.0   0.0   10000|OC 990 
Mon 12:00   SE 13/ 17  10.9  7.0  1030.0    0.0   0.0   0.0   0.0   10000|SC 660 OC 990 
Mon 12:30   SE  9/ 11  10.9  6.8  1029.4    0.0   0.0   0.0   0.0   10000|OC 990 
Mon 13:00  SSE 11/ 13  11.2  7.1  1029.3    0.0   0.0   0.0   0.0   10000|OC 930 
Mon 13:30   SE  9/ 11  11.2  6.1  1029.2    0.0   0.0   0.0   0.0   10000|OC 930 
Mon 14:00  ESE  9/ 13  10.8  6.7  1029.2    0.0   0.0   0.0   0.0   10000|OC 810 
Mon 14:30  SSE 19/ 22  10.6  6.2  1029.3    0.0   0.0   0.0   0.0   10000|OC 870 
Mon 15:00    S 15/ 19  10.5  5.5  1029.3    0.0   0.0   0.0   0.0   10000|OC 930 
Mon 15:30    S 13/ 17  10.4  6.4  1029.2    0.0   0.0   0.0   0.0   10000|OC 930 

NARACOORTE AERODROME

Site: 026099
Alt: 49.7m
3km SSW of NARACOORTE


  Time     Wind        Temp  DP   Baro     Rain since   Rain past  Vis(m), Cloud(base in m), Weather
  local        km/h                         9am  last   hr   10m    
Mon 10:30    S 13/ 17   9.6  7.5  1030.2    0.0   0.0   0.0   0.0   ----- 
Mon 11:00  SSE 20/ 28  10.6  7.1  1030.1    0.0   0.0   0.0   0.0   ----- 
Mon 11:30    S 19/ 24  11.2  7.1  1029.9    0.0   0.0   0.0   0.0   ----- 
Mon 12:00  SSE 17/ 22  10.8  6.7  1029.6    0.0   0.0   0.0   0.0   ----- 
Mon 12:30    S 19/ 24  10.8  6.9  1029.2    0.0   0.0   0.0   0.0   ----- 
Mon 13:00    S 24/ 32  10.5  6.6  1029.2    0.0   0.0   0.0   0.0   ----- 
Mon 13:30  SSE 19/ 26  11.0  6.2  1028.9    0.0   0.0   0.0   0.0   ----- 
Mon 14:00  ESE 17/ 20  10.9  5.0  1028.8    0.0   0.0   0.0   0.0   ----- 
Mon 14:30    S 19/ 24  10.8  4.7  1028.8    0.0   0.0   0.0   0.0   ----- 
Mon 15:00   SE 13/ 17  10.8  5.3  1028.7    0.0   0.0   0.0   0.0   ----- 
Mon 15:30  SSE 13/ 15  10.6  5.4  1028.7    0.0   0.0   0.0   0.0   ----- 

PADTHAWAY SOUTH

Site: 026100
Alt: 37.0m
38km NNW of NARACOORTE


  Time     Wind        Temp  DP   Baro     Rain since   Rain past  Vis(m), Cloud(base in m), Weather
  local        km/h                         9am  last   hr   10m    
Mon 10:30    C  0/  6   9.1  6.4  ------    0.0   0.0   0.0   0.0   ----- 
Mon 11:00    S  6/ 13  10.1  6.3  ------    0.0   0.0   0.0   0.0   ----- 
Mon 11:30    S  7/ 17  10.7  5.9  ------    0.0   0.0   0.0   0.0   ----- 
Mon 12:00  SSE 15/ 24  10.7  5.7  ------    0.0   0.0   0.0   0.0   ----- 
Mon 12:30    S 15/ 20  10.6  5.2  ------    0.0   0.0   0.0   0.0   ----- 
Mon 13:00  SSE 15/ 22  11.2  5.5  ------    0.0   0.0   0.0   0.0   ----- 
Mon 13:30    S 13/ 22  10.9  5.2  ------    0.0   0.0   0.0   0.0   ----- 
Mon 14:00    S 15/ 20  10.9  4.6  ------    0.0   0.0   0.0   0.0   ----- 
Mon 14:30  SSE  7/ 17  10.9  5.4  ------    0.0   0.0   0.0   0.0   ----- 
Mon 15:00  SSE 13/ 17  10.7  5.7  ------    0.0   0.0   0.0   0.0   ----- 
Mon 15:30    S  7/ 13  10.6  4.5  ------    0.0   0.0   0.0   0.0   ----- 

ROBE AIRFIELD

Site: 026105
Alt: 3.0m
5km ESE of ROBE


  Time     Wind        Temp  DP   Baro     Rain since   Rain past  Vis(m), Cloud(base in m), Weather
  local        km/h                         9am  last   hr   10m    
Mon 10:30    E  4/  6  10.1  8.7  1030.9    0.0   0.0   0.0   0.0   ----- 
Mon 11:00    C  0/  6  11.8  9.5  1030.7    0.0   0.0   0.0   0.0   ----- 
Mon 11:30    E  6/  7  11.6  7.9  1030.5    0.0   0.0   0.0   0.0   ----- 
Mon 12:00    C  0/  0  11.9  7.6  1030.3    0.0   0.0   0.0   0.0   ----- 
Mon 12:30  ESE  6/  9  12.1  7.4  1029.8    0.0   0.0   0.0   0.0   ----- 
Mon 13:00   SE  6/  9  11.8  7.3  1029.7    0.0   0.0   0.0   0.0   ----- 
Mon 13:30   SE  4/  7  12.0  6.9  1029.7    0.0   0.0   0.0   0.0   ----- 
Mon 14:00   SE  4/  7  12.2  7.1  1029.4    0.0   0.0   0.0   0.0   ----- 
Mon 14:30   SE  7/ 11  11.9  7.2  1029.1    0.0   0.0   0.0   0.0   ----- 
Mon 15:00  SSE  9/ 15  11.8  5.9  1029.0    0.0   0.0   0.0   0.0   ----- 
Mon 15:30   SE  7/ 11  11.6  6.5  1029.3    0.0   0.0   0.0   0.0   -----